createdAt,value
2018-10-19T00:00:52.037Z,8.17
2018-10-19T00:05:00.313Z,7.83
2018-10-19T00:09:09.881Z,5.70
2018-10-19T00:13:18.938Z,6.53
2018-10-19T00:17:27.510Z,6.50
2018-10-19T00:21:35.833Z,6.20
2018-10-19T00:25:44.252Z,7.97
2018-10-19T00:29:52.657Z,6.90
2018-10-19T00:34:00.955Z,10.40
2018-10-19T00:38:09.473Z,7.50
2018-10-19T00:42:18.368Z,7.80
2018-10-19T00:46:26.678Z,6.90
2018-10-19T00:50:34.969Z,7.33
2018-10-19T00:54:43.293Z,8.65
2018-10-19T00:58:52.003Z,8.00
2018-10-19T01:03:00.348Z,8.53
2018-10-19T01:07:08.754Z,8.03
2018-10-19T01:11:17.416Z,10.17
2018-10-19T01:15:27.265Z,7.10
2018-10-19T01:19:35.526Z,7.83
2018-10-19T01:23:43.849Z,9.17
2018-10-19T01:27:52.404Z,8.40
2018-10-19T01:32:00.693Z,9.63
2018-10-19T01:36:09.088Z,8.57
2018-10-19T01:40:17.651Z,8.57
2018-10-19T01:44:26.423Z,9.73
2018-10-19T01:48:34.702Z,9.30
2018-10-19T01:52:43.103Z,10.00
2018-10-19T01:56:51.666Z,8.67
2018-10-19T02:00:59.955Z,7.87
2018-10-19T02:05:08.677Z,9.77
2018-10-19T02:09:17.506Z,10.20
2018-10-19T02:13:25.884Z,8.87
2018-10-19T02:17:34.162Z,9.50
2018-10-19T02:21:42.553Z,10.50
2018-10-19T02:25:51.358Z,8.90
2018-10-19T02:29:59.695Z,9.20
2018-10-19T02:34:08.088Z,10.00
2018-10-19T02:38:16.500Z,9.30
2018-10-19T02:42:24.834Z,9.90
2018-10-19T02:46:33.117Z,9.23
2018-10-19T02:50:41.560Z,9.10
2018-10-19T02:54:50.190Z,9.97
2018-10-19T02:58:58.464Z,8.97
2018-10-19T03:03:06.771Z,9.80
2018-10-19T03:07:15.050Z,9.93
2018-10-19T03:11:23.328Z,9.23
2018-10-19T03:15:31.612Z,11.67
2018-10-19T03:19:39.873Z,9.93
2018-10-19T03:23:48.916Z,10.32
2018-10-19T03:27:57.317Z,10.13
2018-10-19T03:32:05.595Z,11.93
2018-10-19T03:36:13.901Z,10.83
2018-10-19T03:40:22.416Z,10.60
2018-10-19T03:44:30.701Z,10.50
2018-10-19T03:48:39.120Z,10.17
2018-10-19T03:52:47.756Z,11.63
2018-10-19T03:56:56.078Z,10.60
2018-10-19T04:01:04.361Z,9.60
2018-10-19T04:05:12.747Z,9.60
2018-10-19T04:09:21.318Z,10.50
2018-10-19T04:13:29.629Z,10.00
2018-10-19T04:17:38.214Z,9.87
2018-10-19T04:21:46.502Z,11.50
2018-10-19T04:25:55.191Z,12.30
2018-10-19T04:30:03.552Z,11.53
2018-10-19T04:34:11.957Z,10.90
2018-10-19T04:38:20.210Z,11.00
2018-10-19T04:42:28.819Z,9.70
2018-10-19T04:46:37.335Z,11.10
2018-10-19T04:50:45.650Z,10.60
2018-10-19T04:54:53.929Z,11.27
2018-10-19T04:59:02.245Z,11.68
2018-10-19T05:03:10.885Z,12.20
2018-10-19T05:07:19.267Z,11.17
2018-10-19T05:11:27.648Z,10.80
2018-10-19T05:15:36.134Z,10.87
2018-10-19T05:19:44.276Z,11.37
2018-10-19T05:23:52.601Z,11.77
2018-10-19T05:28:00.913Z,11.47
2018-10-19T05:32:09.464Z,10.63
2018-10-19T05:36:17.742Z,11.47
2018-10-19T05:40:26.148Z,10.97
2018-10-19T05:44:34.627Z,10.13
2018-10-19T05:48:42.967Z,10.47
2018-10-19T05:52:51.257Z,11.77
2018-10-19T05:56:59.541Z,11.27
2018-10-19T06:01:08.605Z,10.90
2018-10-19T06:05:17.018Z,11.00
2018-10-19T06:09:25.408Z,11.38
2018-10-19T06:13:33.846Z,10.10
2018-10-19T06:17:42.187Z,9.13
2018-10-19T06:21:50.514Z,10.73
2018-10-19T06:25:58.841Z,10.50
2018-10-19T06:30:08.052Z,9.67
2018-10-19T06:34:16.360Z,9.88
2018-10-19T06:38:24.752Z,10.87
2018-10-19T06:42:33.036Z,10.67
2018-10-19T06:46:41.793Z,10.60
2018-10-19T06:50:50.062Z,11.93
2018-10-19T06:54:58.432Z,10.30
2018-10-19T06:59:07.123Z,11.23
2018-10-19T07:03:15.377Z,11.03
2018-10-19T07:07:23.662Z,13.07
2018-10-19T07:11:31.919Z,11.37
2018-10-19T07:15:40.412Z,11.43
2018-10-19T07:19:48.666Z,11.67
2018-10-19T07:23:57.373Z,11.80
2018-10-19T07:28:06.394Z,10.63
2018-10-19T07:32:14.769Z,11.87
2018-10-19T07:36:23.185Z,12.23
2018-10-19T07:40:31.428Z,10.50
2018-10-19T07:44:40.214Z,12.40
2018-10-19T07:48:48.480Z,14.40
2018-10-19T07:52:56.975Z,13.03
2018-10-19T07:57:05.911Z,14.33
2018-10-19T08:01:14.254Z,14.37
2018-10-19T08:05:22.506Z,12.80
2018-10-19T08:09:30.816Z,13.23
2018-10-19T08:13:39.370Z,14.90
2018-10-19T08:17:47.763Z,13.63
2018-10-19T08:21:56.375Z,12.53
2018-10-19T08:26:05.233Z,15.60
2018-10-19T08:30:14.910Z,14.07
2018-10-19T08:34:23.274Z,15.57
2018-10-19T08:38:31.603Z,16.13
2018-10-19T08:42:40.186Z,16.37
2018-10-19T08:46:48.458Z,18.13
2018-10-19T08:50:57.108Z,20.57
2018-10-19T08:55:05.772Z,19.30
2018-10-19T08:59:14.172Z,18.10
2018-10-19T09:03:22.369Z,20.73
2018-10-19T09:07:30.671Z,22.60
2018-10-19T09:11:39.557Z,24.93
2018-10-19T09:15:47.898Z,25.03
2018-10-19T09:19:56.440Z,24.60
2018-10-19T09:24:05.634Z,26.90
2018-10-19T09:28:14.238Z,27.83
2018-10-19T09:32:22.506Z,31.13
2018-10-19T09:36:31.149Z,29.43
2018-10-19T09:40:39.537Z,34.87
2018-10-19T09:44:47.829Z,36.70
2018-10-19T09:48:56.336Z,40.10
2018-10-19T09:53:05.125Z,36.17
2018-10-19T09:57:13.617Z,37.83
2018-10-19T10:01:28.465Z,40.70
2018-10-19T10:05:37.499Z,35.17
2018-10-19T10:09:45.856Z,36.33
2018-10-19T10:13:54.306Z,34.30
2018-10-19T10:18:02.881Z,37.73
2018-10-19T10:22:11.820Z,38.70
2018-10-19T10:26:20.055Z,35.20
2018-10-19T10:30:28.740Z,32.50
2018-10-19T10:34:37.618Z,37.53
2018-10-19T10:38:46.053Z,40.97
2018-10-19T10:42:54.466Z,38.83
2018-10-19T10:47:03.573Z,36.10
2018-10-19T10:51:12.045Z,35.67
2018-10-19T10:55:22.388Z,37.40
2018-10-19T10:59:30.715Z,38.70
2018-10-19T11:03:43.503Z,37.40
2018-10-19T11:07:51.783Z,36.40
2018-10-19T11:12:00.072Z,35.60
2018-10-19T11:16:09.796Z,37.10
2018-10-19T11:20:18.061Z,33.17
2018-10-19T11:24:26.690Z,35.08
2018-10-19T11:28:35.533Z,36.27
2018-10-19T11:32:43.845Z,37.00
2018-10-19T11:36:52.213Z,36.50
2018-10-19T11:41:00.704Z,35.17
2018-10-19T11:45:09.117Z,31.47
2018-10-19T11:49:17.745Z,34.80
2018-10-19T11:53:26.010Z,32.30
2018-10-19T11:57:34.695Z,33.00
2018-10-19T12:01:42.965Z,34.87
2018-10-19T12:05:51.263Z,29.50
2018-10-19T12:10:00.077Z,29.60
2018-10-19T12:14:08.377Z,32.50
2018-10-19T12:18:16.829Z,30.90
2018-10-19T12:22:25.122Z,30.60
2018-10-19T12:26:33.650Z,32.80
2018-10-19T12:30:41.955Z,34.23
2018-10-19T12:34:50.455Z,34.83
2018-10-19T12:38:59.288Z,30.33
2018-10-19T12:43:07.608Z,29.70
2018-10-19T12:47:29.426Z,29.77
2018-10-19T12:51:37.919Z,28.23
2018-10-19T12:55:46.392Z,30.53
2018-10-19T12:59:54.821Z,30.30
2018-10-19T13:04:03.835Z,28.93
2018-10-19T13:08:12.098Z,28.60
2018-10-19T13:12:20.492Z,29.37
2018-10-19T13:16:29.257Z,28.20
2018-10-19T13:20:37.566Z,26.37
2018-10-19T13:24:45.876Z,27.80
2018-10-19T13:28:54.224Z,27.50
2018-10-19T13:33:02.976Z,25.50
2018-10-19T13:37:11.268Z,26.63
2018-10-19T13:41:19.659Z,28.38
2018-10-19T13:45:28.394Z,29.10
2018-10-19T13:49:36.706Z,26.33
2018-10-19T13:53:45.003Z,25.67
2018-10-19T13:57:53.381Z,21.13
2018-10-19T14:02:01.980Z,19.40
2018-10-19T14:06:10.318Z,18.97
2018-10-19T14:10:18.712Z,18.57
2018-10-19T14:14:27.040Z,18.40
2018-10-19T14:18:35.380Z,16.47
2018-10-19T14:22:43.670Z,16.40
2018-10-19T14:26:52.042Z,17.20
2018-10-19T14:31:00.689Z,16.50
2018-10-19T14:35:09.554Z,16.60
2018-10-19T14:39:17.894Z,17.43
2018-10-19T14:43:27.096Z,16.20
2018-10-19T14:47:36.163Z,16.10
2018-10-19T14:51:44.453Z,15.90
2018-10-19T14:55:52.685Z,15.33
2018-10-19T15:00:01.212Z,15.07
2018-10-19T15:04:09.567Z,16.33
2018-10-19T15:08:17.973Z,16.07
2018-10-19T15:12:26.372Z,13.43
2018-10-19T15:16:34.882Z,12.63
2018-10-19T15:20:43.188Z,13.27
2018-10-19T15:24:51.648Z,13.53
2018-10-19T15:29:00.203Z,15.70
2018-10-19T15:33:08.515Z,15.00
2018-10-19T15:37:16.756Z,13.30
2018-10-19T15:41:25.050Z,14.53
2018-10-19T15:45:33.614Z,13.80
2018-10-19T15:49:41.913Z,11.47
2018-10-19T15:53:50.313Z,12.93
2018-10-19T15:57:59.077Z,12.17
2018-10-19T16:02:07.384Z,12.83
2018-10-19T16:06:15.617Z,13.03
2018-10-19T16:10:23.946Z,11.43
2018-10-19T16:14:32.429Z,10.93
2018-10-19T16:18:40.721Z,10.73
2018-10-19T16:22:49.085Z,11.27
2018-10-19T16:26:57.752Z,10.13
2018-10-19T16:31:06.011Z,9.27
2018-10-19T16:35:14.293Z,10.83
2018-10-19T16:39:22.547Z,10.30
2018-10-19T16:43:31.101Z,10.30
2018-10-19T16:47:39.387Z,10.40
2018-10-19T16:51:47.772Z,9.10
2018-10-19T16:55:56.096Z,9.60
2018-10-19T17:00:04.800Z,10.63
2018-10-19T17:04:13.076Z,10.10
2018-10-19T17:08:21.349Z,12.27
2018-10-19T17:12:30.066Z,11.40
2018-10-19T17:16:38.709Z,10.60
2018-10-19T17:20:47.041Z,11.73
2018-10-19T17:24:55.398Z,11.70
2018-10-19T17:29:04.172Z,11.97
2018-10-19T17:33:12.485Z,11.40
2018-10-19T17:37:20.841Z,12.27
2018-10-19T17:41:29.259Z,11.50
2018-10-19T17:45:37.652Z,12.03
2018-10-19T17:49:45.939Z,12.43
2018-10-19T17:53:54.326Z,12.93
2018-10-19T17:58:03.295Z,14.13
2018-10-19T18:02:11.629Z,12.57
2018-10-19T18:06:19.934Z,12.87
2018-10-19T18:10:28.357Z,13.23
2018-10-19T18:14:36.858Z,13.10
2018-10-19T18:18:45.321Z,14.73
2018-10-19T18:22:53.827Z,12.50
2018-10-19T18:27:02.429Z,15.87
2018-10-19T18:31:10.665Z,14.40
2018-10-19T18:35:19.074Z,14.53
2018-10-19T18:39:27.306Z,13.23
2018-10-19T18:43:35.824Z,15.20
2018-10-19T18:47:44.138Z,14.17
2018-10-19T18:51:52.664Z,14.40
2018-10-19T18:56:02.337Z,14.20
2018-10-19T19:00:11.246Z,13.63
2018-10-19T19:04:19.591Z,20.50
2018-10-19T19:08:27.911Z,11.68
2018-10-19T19:12:36.569Z,13.13
2018-10-19T19:16:44.883Z,13.60
2018-10-19T19:20:53.381Z,15.40
2018-10-19T19:25:07.105Z,12.87
2018-10-19T19:29:15.545Z,14.50
2018-10-19T19:33:29.205Z,11.05
2018-10-19T19:37:37.852Z,12.47
2018-10-19T19:41:51.440Z,14.60
2018-10-19T19:46:00.394Z,11.53
2018-10-19T19:50:08.831Z,12.80
2018-10-19T19:54:17.116Z,12.00
2018-10-19T19:58:25.532Z,12.40
2018-10-19T20:02:34.221Z,12.40
2018-10-19T20:06:42.522Z,10.37
2018-10-19T20:10:50.972Z,11.57
2018-10-19T20:14:59.959Z,10.13
2018-10-19T20:19:08.460Z,11.00
2018-10-19T20:23:16.785Z,12.10
2018-10-19T20:27:25.154Z,12.03
2018-10-19T20:31:33.585Z,11.70
2018-10-19T20:35:41.894Z,11.53
2018-10-19T20:39:50.461Z,11.70
2018-10-19T20:43:58.793Z,11.50
2018-10-19T20:48:07.291Z,10.50
2018-10-19T20:52:15.543Z,9.90
2018-10-19T20:56:23.964Z,11.00
2018-10-19T21:00:32.556Z,9.47
2018-10-19T21:04:40.808Z,10.23
2018-10-19T21:08:49.121Z,10.40
2018-10-19T21:12:57.401Z,9.63
2018-10-19T21:17:05.911Z,11.93
2018-10-19T21:21:14.201Z,10.10
2018-10-19T21:25:22.631Z,10.60
2018-10-19T21:29:31.098Z,10.50
2018-10-19T21:33:39.398Z,9.57
2018-10-19T21:37:47.682Z,10.23
2018-10-19T21:41:55.960Z,10.07
2018-10-19T21:46:04.456Z,8.13
2018-10-19T21:50:12.832Z,10.27
2018-10-19T21:54:21.202Z,10.23
2018-10-19T21:58:29.891Z,10.63
2018-10-19T22:02:38.199Z,10.43
2018-10-19T22:06:46.477Z,10.10
2018-10-19T22:10:54.993Z,9.97
2018-10-19T22:15:03.669Z,11.37
2018-10-19T22:19:11.978Z,10.60
2018-10-19T22:23:20.653Z,9.47
2018-10-19T22:27:28.583Z,11.20
2018-10-19T22:31:36.994Z,9.07
2018-10-19T22:35:45.289Z,10.50
2018-10-19T22:39:53.549Z,10.57
2018-10-19T22:44:01.983Z,9.17
2018-10-19T22:48:10.373Z,10.53
2018-10-19T22:52:18.676Z,11.33
2018-10-19T22:56:27.009Z,12.27
2018-10-19T23:00:35.495Z,10.47
2018-10-19T23:04:43.786Z,10.67
2018-10-19T23:08:52.165Z,10.60
2018-10-19T23:13:01.485Z,11.73
2018-10-19T23:17:09.896Z,11.57
2018-10-19T23:21:18.100Z,12.80
2018-10-19T23:25:26.383Z,10.43
2018-10-19T23:29:35.046Z,10.33
2018-10-19T23:33:43.373Z,11.80
2018-10-19T23:37:51.759Z,11.17
2018-10-19T23:42:00.103Z,10.50
2018-10-19T23:46:08.581Z,10.57
2018-10-19T23:50:16.878Z,10.97
2018-10-19T23:54:25.206Z,10.72
2018-10-19T23:58:33.516Z,11.47
